Vernal Regional Airport Vernal US
ICAO: KVEL
IATA: VEL
Category: Medium
Scheduled Services: No

Elevation: 5278 ft
TransAlt. 18000 ft.

Airport Communications:
ASOS:135.175
CEDAR CITY RDO:122.35
CTAF/UNICOM:122.7

KVEL Zoom In..

If you have problems with the map follow the link
https://www.worldairports.se/pages/airport.php?
ICAO=KVEL

Runways:

(A) RW 07 length 4108 ft width 60 ft
---- / hdg 76

(B) RW 16 length 6201 ft width 150 ft
---- / hdg 166

(C) RW 25 length 4108 ft width 60 ft
---- / hdg 256

(D) RW 34 length 6201 ft width 150 ft
---- / hdg 346

Location; KVEL
Day. 25 / Time. 08.41 Zulu
* Altimeter: 30.15
* Temperature: -05° c. -23°f.
* Wind from: 000° Speed 00 kn.
Dewpoint: -07° c.
Visibility: 6 Statute Miles.
Clouds: Broken 800 ft.
Clouds: Overcast 2000 ft.
Conditions: Mist.

KVEL 250841Z AUTO 00000KT 6SM BR BKN008 OVC020 M05/M07 A3015 RMK AO2 CIG 005V010 T10501067


Wind - Calm.

 
 
jpsmedia worldairports.se 2020   terms of use